Terminal Aerodrome Forecast
Issued by NWS Northern Indiana

Home | Current Version | Previous Version | Text Only | Print | Product List | Glossary On
Versions: 1 2 3 4 5 6 7 8 9 10 11 12 13 14 15 16
000
FTUS43 KIWX 260500
TAFFWA
TAF
KFWA 260528Z 2606/2706 20004KT P6SM BKN060
     FM261300 23010KT P6SM SCT035 BKN070
     FM262300 25006KT P6SM VCSH BKN040
      TEMPO 2701/2705 3SM TSRA OVC020CB=

USA.gov is the U.S. government's official web portal to all federal, state and local government web resources and services.